DFW weather

Public forecast

Using degrees Fahrenheit for public forecast. Weather courtesy of forecast.io.

Current aviation weather report (METAR) for Dallas Fort Worth International Airport

Retrieved 2020/08/15 01:53 UTC (51 minutes ago):

KDFW 150153Z 14010KT 10SM SCT250 35/20 A2979 RMK AO2 SLP078 T03500200

Aviation forecast (TAF) for Dallas Fort Worth International Airport

Retrieved 2020-08-15 00:24 UTC (2 hours ago):

TAF KDFW 142322Z 1500/1606 17007KT P6SM SKC FM151800 09007KT P6SM SKC FM160100 07008KT P6SM FEW200